sensor_id;sensor_type;location;lat;lon;timestamp;pressure;altitude;pressure_sealevel;temperature;humidity
65329;BME280;51941;52.210;5.158;2024-02-04T00:01:59;102317.75;;;9.09;86.20
65329;BME280;51941;52.210;5.158;2024-02-04T00:04:25;102325.50;;;9.10;86.14
65329;BME280;51941;52.210;5.158;2024-02-04T00:06:52;102321.72;;;9.03;86.17
65329;BME280;51941;52.210;5.158;2024-02-04T00:09:19;102326.47;;;9.06;85.79
65329;BME280;51941;52.210;5.158;2024-02-04T00:11:45;102313.34;;;9.04;85.83
65329;BME280;51941;52.210;5.158;2024-02-04T00:14:12;102315.66;;;8.76;87.12
65329;BME280;51941;52.210;5.158;2024-02-04T00:16:40;102321.63;;;8.90;86.77
65329;BME280;51941;52.210;5.158;2024-02-04T00:19:07;102312.13;;;8.93;86.48
65329;BME280;51941;52.210;5.158;2024-02-04T00:21:34;102324.47;;;8.85;86.53
65329;BME280;51941;52.210;5.158;2024-02-04T00:24:00;102314.34;;;8.91;86.53
65329;BME280;51941;52.210;5.158;2024-02-04T00:26:27;102318.94;;;8.90;86.31
65329;BME280;51941;52.210;5.158;2024-02-04T00:28:54;102312.00;;;8.81;86.78
65329;BME280;51941;52.210;5.158;2024-02-04T00:31:20;102305.97;;;8.93;86.66
65329;BME280;51941;52.210;5.158;2024-02-04T00:33:48;102320.03;;;8.89;86.36
65329;BME280;51941;52.210;5.158;2024-02-04T00:36:15;102318.00;;;8.86;86.54
65329;BME280;51941;52.210;5.158;2024-02-04T00:38:43;102311.50;;;8.96;86.24
65329;BME280;51941;52.210;5.158;2024-02-04T00:41:09;102314.03;;;8.93;86.21
65329;BME280;51941;52.210;5.158;2024-02-04T00:43:36;102313.25;;;8.92;86.35
65329;BME280;51941;52.210;5.158;2024-02-04T00:46:03;102310.09;;;8.90;86.64
65329;BME280;51941;52.210;5.158;2024-02-04T00:48:30;102305.66;;;8.94;86.45
65329;BME280;51941;52.210;5.158;2024-02-04T00:50:58;102317.34;;;8.89;86.67
65329;BME280;51941;52.210;5.158;2024-02-04T00:53:24;102310.84;;;8.99;86.14
65329;BME280;51941;52.210;5.158;2024-02-04T00:55:53;102310.72;;;8.96;86.25
65329;BME280;51941;52.210;5.158;2024-02-04T00:58:20;102305.59;;;9.03;86.11
65329;BME280;51941;52.210;5.158;2024-02-04T01:00:46;102295.66;;;9.03;85.99
65329;BME280;51941;52.210;5.158;2024-02-04T01:03:14;102305.13;;;9.01;86.04
65329;BME280;51941;52.210;5.158;2024-02-04T01:05:41;102303.13;;;8.98;86.29
65329;BME280;51941;52.210;5.158;2024-02-04T01:08:09;102305.81;;;8.98;86.29
65329;BME280;51941;52.210;5.158;2024-02-04T01:10:36;102300.59;;;8.93;86.24
65329;BME280;51941;52.210;5.158;2024-02-04T01:13:03;102300.09;;;8.99;86.00
65329;BME280;51941;52.210;5.158;2024-02-04T01:15:30;102304.81;;;9.02;85.92
65329;BME280;51941;52.210;5.158;2024-02-04T01:17:57;102302.44;;;9.01;85.96
65329;BME280;51941;52.210;5.158;2024-02-04T01:20:26;102302.31;;;8.97;85.77
65329;BME280;51941;52.210;5.158;2024-02-04T01:22:53;102304.88;;;8.94;85.92
65329;BME280;51941;52.210;5.158;2024-02-04T01:25:21;102305.00;;;8.97;86.11
65329;BME280;51941;52.210;5.158;2024-02-04T01:27:48;102308.34;;;8.94;85.51
65329;BME280;51941;52.210;5.158;2024-02-04T01:30:15;102304.72;;;8.90;85.29
65329;BME280;51941;52.210;5.158;2024-02-04T01:32:41;102300.91;;;8.91;85.21
65329;BME280;51941;52.210;5.158;2024-02-04T01:35:08;102300.28;;;8.85;84.79
65329;BME280;51941;52.210;5.158;2024-02-04T01:37:35;102308.03;;;8.87;84.91
65329;BME280;51941;52.210;5.158;2024-02-04T01:40:02;102300.03;;;8.69;84.17
65329;BME280;51941;52.210;5.158;2024-02-04T01:42:32;102292.16;;;8.64;84.01
65329;BME280;51941;52.210;5.158;2024-02-04T01:44:58;102297.34;;;8.69;84.14
65329;BME280;51941;52.210;5.158;2024-02-04T01:47:25;102299.75;;;8.62;84.19
65329;BME280;51941;52.210;5.158;2024-02-04T01:49:52;102304.03;;;8.55;84.34
65329;BME280;51941;52.210;5.158;2024-02-04T01:52:19;102307.34;;;8.51;84.16
65329;BME280;51941;52.210;5.158;2024-02-04T01:54:46;102311.16;;;8.50;84.37
65329;BME280;51941;52.210;5.158;2024-02-04T01:57:13;102304.50;;;8.57;84.15
65329;BME280;51941;52.210;5.158;2024-02-04T01:59:42;102306.41;;;8.56;83.99
65329;BME280;51941;52.210;5.158;2024-02-04T02:02:09;102301.81;;;8.57;83.94
65329;BME280;51941;52.210;5.158;2024-02-04T02:04:35;102316.84;;;8.49;83.71
65329;BME280;51941;52.210;5.158;2024-02-04T02:07:02;102312.72;;;8.51;83.98
65329;BME280;51941;52.210;5.158;2024-02-04T02:09:29;102319.03;;;8.47;84.06
65329;BME280;51941;52.210;5.158;2024-02-04T02:12:02;102321.88;;;8.42;83.76
65329;BME280;51941;52.210;5.158;2024-02-04T02:14:32;102320.78;;;8.43;84.16
65329;BME280;51941;52.210;5.158;2024-02-04T02:17:07;102305.47;;;8.43;84.01
65329;BME280;51941;52.210;5.158;2024-02-04T02:19:46;102309.59;;;8.41;83.74
65329;BME280;51941;52.210;5.158;2024-02-04T02:22:24;102294.09;;;8.46;83.91
65329;BME280;51941;52.210;5.158;2024-02-04T02:24:56;102297.09;;;8.36;84.33
65329;BME280;51941;52.210;5.158;2024-02-04T02:27:24;102286.97;;;8.42;84.22
65329;BME280;51941;52.210;5.158;2024-02-04T02:29:51;102295.19;;;8.45;83.90
65329;BME280;51941;52.210;5.158;2024-02-04T02:32:18;102297.88;;;8.45;83.97
65329;BME280;51941;52.210;5.158;2024-02-04T02:34:45;102295.22;;;8.37;84.21
65329;BME280;51941;52.210;5.158;2024-02-04T02:37:22;102293.13;;;8.42;84.08
65329;BME280;51941;52.210;5.158;2024-02-04T02:39:57;102303.56;;;8.44;83.62
65329;BME280;51941;52.210;5.158;2024-02-04T02:42:25;102297.41;;;8.43;83.79
65329;BME280;51941;52.210;5.158;2024-02-04T02:44:53;102295.34;;;8.40;83.91
65329;BME280;51941;52.210;5.158;2024-02-04T02:47:22;102298.03;;;8.40;83.75
65329;BME280;51941;52.210;5.158;2024-02-04T02:49:51;102299.47;;;8.46;83.87
65329;BME280;51941;52.210;5.158;2024-02-04T02:52:18;102300.25;;;8.47;83.39
65329;BME280;51941;52.210;5.158;2024-02-04T02:54:45;102295.19;;;8.45;83.63
65329;BME280;51941;52.210;5.158;2024-02-04T02:57:13;102300.41;;;8.42;83.32
65329;BME280;51941;52.210;5.158;2024-02-04T02:59:39;102298.06;;;8.31;83.46
65329;BME280;51941;52.210;5.158;2024-02-04T03:02:06;102307.34;;;8.34;83.56
65329;BME280;51941;52.210;5.158;2024-02-04T03:04:33;102305.50;;;8.35;83.46
65329;BME280;51941;52.210;5.158;2024-02-04T03:06:59;102294.59;;;8.31;83.75
65329;BME280;51941;52.210;5.158;2024-02-04T03:09:26;102302.81;;;8.35;83.57
65329;BME280;51941;52.210;5.158;2024-02-04T03:11:53;102300.59;;;8.28;83.69
65329;BME280;51941;52.210;5.158;2024-02-04T03:14:22;102298.06;;;8.31;83.90
65329;BME280;51941;52.210;5.158;2024-02-04T03:16:49;102290.31;;;8.30;84.14
65329;BME280;51941;52.210;5.158;2024-02-04T03:19:15;102292.06;;;8.35;84.00
65329;BME280;51941;52.210;5.158;2024-02-04T03:21:42;102289.06;;;8.27;83.88
65329;BME280;51941;52.210;5.158;2024-02-04T03:24:09;102284.31;;;8.33;83.95
65329;BME280;51941;52.210;5.158;2024-02-04T03:26:36;102280.84;;;8.24;84.24
65329;BME280;51941;52.210;5.158;2024-02-04T03:29:02;102273.59;;;8.24;84.39
65329;BME280;51941;52.210;5.158;2024-02-04T03:31:32;102285.72;;;8.30;83.85
65329;BME280;51941;52.210;5.158;2024-02-04T03:33:59;102279.09;;;8.28;83.82
65329;BME280;51941;52.210;5.158;2024-02-04T03:36:26;102274.38;;;8.25;83.69
65329;BME280;51941;52.210;5.158;2024-02-04T03:38:52;102292.69;;;8.31;83.36
65329;BME280;51941;52.210;5.158;2024-02-04T03:41:19;102287.81;;;8.25;82.88
65329;BME280;51941;52.210;5.158;2024-02-04T03:43:46;102300.28;;;8.21;82.89
65329;BME280;51941;52.210;5.158;2024-02-04T03:46:13;102306.59;;;8.16;82.04
65329;BME280;51941;52.210;5.158;2024-02-04T03:48:42;102300.59;;;8.10;81.85
65329;BME280;51941;52.210;5.158;2024-02-04T03:51:15;102304.06;;;8.02;82.05
65329;BME280;51941;52.210;5.158;2024-02-04T03:53:42;102303.44;;;8.14;82.47
65329;BME280;51941;52.210;5.158;2024-02-04T03:56:09;102298.38;;;8.12;82.13
65329;BME280;51941;52.210;5.158;2024-02-04T03:58:35;102300.28;;;8.12;82.17
65329;BME280;51941;52.210;5.158;2024-02-04T04:01:02;102296.19;;;8.06;82.13
65329;BME280;51941;52.210;5.158;2024-02-04T04:03:30;102295.22;;;8.10;81.69
65329;BME280;51941;52.210;5.158;2024-02-04T04:05:58;102301.88;;;8.13;81.77
65329;BME280;51941;52.210;5.158;2024-02-04T04:08:24;102301.72;;;8.09;81.77
65329;BME280;51941;52.210;5.158;2024-02-04T04:10:51;102292.69;;;8.14;81.60
65329;BME280;51941;52.210;5.158;2024-02-04T04:13:18;102279.28;;;8.14;81.53
65329;BME280;51941;52.210;5.158;2024-02-04T04:15:44;102266.50;;;8.11;81.46
65329;BME280;51941;52.210;5.158;2024-02-04T04:18:10;102266.50;;;8.11;81.78
65329;BME280;51941;52.210;5.158;2024-02-04T04:20:38;102281.03;;;8.10;81.98
65329;BME280;51941;52.210;5.158;2024-02-04T04:23:06;102268.38;;;8.10;81.99
65329;BME280;51941;52.210;5.158;2024-02-04T04:25:33;102263.97;;;8.15;82.35
65329;BME280;51941;52.210;5.158;2024-02-04T04:27:59;102269.97;;;8.20;82.16
65329;BME280;51941;52.210;5.158;2024-02-04T04:30:26;102262.88;;;8.16;82.38
65329;BME280;51941;52.210;5.158;2024-02-04T04:32:53;102267.28;;;8.20;82.24
65329;BME280;51941;52.210;5.158;2024-02-04T04:35:19;102253.72;;;8.08;82.92
65329;BME280;51941;52.210;5.158;2024-02-04T04:37:46;102259.56;;;8.10;82.68
65329;BME280;51941;52.210;5.158;2024-02-04T04:40:14;102261.47;;;8.09;82.36
65329;BME280;51941;52.210;5.158;2024-02-04T04:42:41;102257.03;;;8.14;82.50
65329;BME280;51941;52.210;5.158;2024-02-04T04:45:08;102245.50;;;8.13;82.48
65329;BME280;51941;52.210;5.158;2024-02-04T04:47:36;102235.25;;;8.15;82.50
65329;BME280;51941;52.210;5.158;2024-02-04T04:50:04;102242.34;;;8.20;82.52
65329;BME280;51941;52.210;5.158;2024-02-04T04:52:31;102240.13;;;8.22;82.43
65329;BME280;51941;52.210;5.158;2024-02-04T04:54:58;102243.28;;;8.24;82.38
65329;BME280;51941;52.210;5.158;2024-02-04T04:57:26;102231.28;;;8.21;81.85
65329;BME280;51941;52.210;5.158;2024-02-04T04:59:52;102230.97;;;8.23;82.00
65329;BME280;51941;52.210;5.158;2024-02-04T05:02:19;102228.09;;;8.28;82.10
65329;BME280;51941;52.210;5.158;2024-02-04T05:04:46;102230.78;;;8.28;81.83
65329;BME280;51941;52.210;5.158;2024-02-04T05:07:14;102227.00;;;8.29;81.89
65329;BME280;51941;52.210;5.158;2024-02-04T05:09:40;102220.22;;;8.31;81.99
65329;BME280;51941;52.210;5.158;2024-02-04T05:12:08;102223.03;;;8.35;81.98
65329;BME280;51941;52.210;5.158;2024-02-04T05:14:36;102223.81;;;8.36;81.51
65329;BME280;51941;52.210;5.158;2024-02-04T05:17:04;102232.53;;;8.32;81.27
65329;BME280;51941;52.210;5.158;2024-02-04T05:19:30;102239.00;;;8.31;81.54
65329;BME280;51941;52.210;5.158;2024-02-04T05:21:57;102246.44;;;8.35;81.93
65329;BME280;51941;52.210;5.158;2024-02-04T05:24:24;102227.94;;;8.33;81.84
65329;BME280;51941;52.210;5.158;2024-02-04T05:26:50;102224.13;;;8.34;81.83
65329;BME280;51941;52.210;5.158;2024-02-04T05:29:17;102222.72;;;8.37;82.00
65329;BME280;51941;52.210;5.158;2024-02-04T05:31:45;102221.16;;;8.36;81.84
65329;BME280;51941;52.210;5.158;2024-02-04T05:34:12;102209.94;;;8.34;81.96
65329;BME280;51941;52.210;5.158;2024-02-04T05:36:39;102209.31;;;8.37;82.08
65329;BME280;51941;52.210;5.158;2024-02-04T05:39:10;102199.34;;;8.37;81.75
65329;BME280;51941;52.210;5.158;2024-02-04T05:41:37;102208.38;;;8.32;82.14
65329;BME280;51941;52.210;5.158;2024-02-04T05:44:04;102210.91;;;8.29;81.82
65329;BME280;51941;52.210;5.158;2024-02-04T05:46:31;102221.47;;;8.34;81.84
65329;BME280;51941;52.210;5.158;2024-02-04T05:48:59;102226.81;;;8.34;81.89
65329;BME280;51941;52.210;5.158;2024-02-04T05:51:27;102220.09;;;8.19;81.68
65329;BME280;51941;52.210;5.158;2024-02-04T05:53:54;102221.19;;;8.18;81.48
65329;BME280;51941;52.210;5.158;2024-02-04T05:56:21;102219.63;;;8.17;81.75
65329;BME280;51941;52.210;5.158;2024-02-04T05:58:48;102202.06;;;8.20;81.93
65329;BME280;51941;52.210;5.158;2024-02-04T06:01:15;102190.41;;;8.16;81.55
65329;BME280;51941;52.210;5.158;2024-02-04T06:03:42;102196.72;;;8.20;81.58
65329;BME280;51941;52.210;5.158;2024-02-04T06:06:14;102194.19;;;8.15;81.60
65329;BME280;51941;52.210;5.158;2024-02-04T06:08:40;102191.84;;;8.13;81.75
65329;BME280;51941;52.210;5.158;2024-02-04T06:11:09;102196.41;;;8.12;81.84
65329;BME280;51941;52.210;5.158;2024-02-04T06:13:36;102182.50;;;8.10;82.07
65329;BME280;51941;52.210;5.158;2024-02-04T06:16:04;102178.91;;;8.15;81.92
65329;BME280;51941;52.210;5.158;2024-02-04T06:18:30;102183.59;;;8.18;82.05
65329;BME280;51941;52.210;5.158;2024-02-04T06:20:57;102176.53;;;8.14;82.42
65329;BME280;51941;52.210;5.158;2024-02-04T06:23:25;102175.56;;;8.18;82.28
65329;BME280;51941;52.210;5.158;2024-02-04T06:25:52;102171.31;;;8.17;82.62
65329;BME280;51941;52.210;5.158;2024-02-04T06:28:18;102169.41;;;8.18;82.53
65329;BME280;51941;52.210;5.158;2024-02-04T06:30:45;102160.06;;;8.24;82.34
65329;BME280;51941;52.210;5.158;2024-02-04T06:33:12;102170.97;;;8.27;82.34
65329;BME280;51941;52.210;5.158;2024-02-04T06:35:38;102174.75;;;8.26;83.14
65329;BME280;51941;52.210;5.158;2024-02-04T06:38:05;102159.44;;;8.27;83.08
65329;BME280;51941;52.210;5.158;2024-02-04T06:40:33;102172.50;;;8.28;83.08
65329;BME280;51941;52.210;5.158;2024-02-04T06:43:00;102166.84;;;8.30;83.01
65329;BME280;51941;52.210;5.158;2024-02-04T06:45:26;102164.31;;;8.34;83.09
65329;BME280;51941;52.210;5.158;2024-02-04T06:47:53;102167.16;;;8.28;83.77
65329;BME280;51941;52.210;5.158;2024-02-04T06:50:20;102166.84;;;8.30;83.28
65329;BME280;51941;52.210;5.158;2024-02-04T06:52:47;102170.97;;;8.19;84.69
65329;BME280;51941;52.210;5.158;2024-02-04T06:55:14;102173.78;;;8.31;83.84
65329;BME280;51941;52.210;5.158;2024-02-04T06:57:42;102163.88;;;8.23;84.41
65329;BME280;51941;52.210;5.158;2024-02-04T07:00:09;102161.31;;;8.35;84.14
65329;BME280;51941;52.210;5.158;2024-02-04T07:02:36;102153.25;;;8.35;84.31
65329;BME280;51941;52.210;5.158;2024-02-04T07:05:04;102142.78;;;8.42;84.18
65329;BME280;51941;52.210;5.158;2024-02-04T07:07:31;102144.50;;;8.47;84.14
65329;BME280;51941;52.210;5.158;2024-02-04T07:09:59;102150.66;;;8.56;83.84
65329;BME280;51941;52.210;5.158;2024-02-04T07:12:25;102150.16;;;8.54;84.08
65329;BME280;51941;52.210;5.158;2024-02-04T07:14:53;102141.47;;;8.57;84.28
65329;BME280;51941;52.210;5.158;2024-02-04T07:17:20;102143.06;;;8.58;84.56
65329;BME280;51941;52.210;5.158;2024-02-04T07:19:47;102138.25;;;8.64;84.28
65329;BME280;51941;52.210;5.158;2024-02-04T07:22:13;102142.53;;;8.65;84.11
65329;BME280;51941;52.210;5.158;2024-02-04T07:24:41;102138.72;;;8.66;84.29
65329;BME280;51941;52.210;5.158;2024-02-04T07:27:07;102155.31;;;8.68;84.46
65329;BME280;51941;52.210;5.158;2024-02-04T07:29:34;102151.06;;;8.67;84.50
65329;BME280;51941;52.210;5.158;2024-02-04T07:32:02;102159.25;;;8.70;84.19
65329;BME280;51941;52.210;5.158;2024-02-04T07:34:29;102158.13;;;8.71;84.11
65329;BME280;51941;52.210;5.158;2024-02-04T07:36:56;102160.03;;;8.71;84.23
65329;BME280;51941;52.210;5.158;2024-02-04T07:39:23;102162.72;;;8.71;84.20
65329;BME280;51941;52.210;5.158;2024-02-04T07:41:50;102166.00;;;8.77;84.11
65329;BME280;51941;52.210;5.158;2024-02-04T07:44:19;102164.09;;;8.77;83.77
65329;BME280;51941;52.210;5.158;2024-02-04T07:46:45;102176.91;;;8.80;83.87
65329;BME280;51941;52.210;5.158;2024-02-04T07:49:13;102175.47;;;8.83;83.52
65329;BME280;51941;52.210;5.158;2024-02-04T07:51:40;102164.31;;;8.72;83.37
65329;BME280;51941;52.210;5.158;2024-02-04T07:54:07;102162.50;;;8.85;83.63
65329;BME280;51941;52.210;5.158;2024-02-04T07:56:34;102164.84;;;8.86;82.90
65329;BME280;51941;52.210;5.158;2024-02-04T07:59:00;102148.78;;;8.78;82.78
65329;BME280;51941;52.210;5.158;2024-02-04T08:01:29;102156.78;;;8.86;82.74
65329;BME280;51941;52.210;5.158;2024-02-04T08:03:55;102154.25;;;8.90;82.45
65329;BME280;51941;52.210;5.158;2024-02-04T08:06:23;102159.81;;;8.85;81.39
65329;BME280;51941;52.210;5.158;2024-02-04T08:08:50;102157.91;;;8.85;81.21
65329;BME280;51941;52.210;5.158;2024-02-04T08:11:17;102156.63;;;8.91;81.38
65329;BME280;51941;52.210;5.158;2024-02-04T08:13:44;102145.19;;;8.95;80.85
65329;BME280;51941;52.210;5.158;2024-02-04T08:16:10;102158.78;;;8.98;80.81
65329;BME280;51941;52.210;5.158;2024-02-04T08:18:37;102155.63;;;8.96;80.82
65329;BME280;51941;52.210;5.158;2024-02-04T08:21:04;102151.41;;;8.86;80.81
65329;BME280;51941;52.210;5.158;2024-02-04T08:23:32;102155.94;;;8.95;80.85
65329;BME280;51941;52.210;5.158;2024-02-04T08:25:59;102147.56;;;8.96;80.84
65329;BME280;51941;52.210;5.158;2024-02-04T08:28:26;102150.56;;;8.95;80.94
65329;BME280;51941;52.210;5.158;2024-02-04T08:30:53;102145.34;;;8.98;80.77
65329;BME280;51941;52.210;5.158;2024-02-04T08:33:19;102156.13;;;8.89;81.05
65329;BME280;51941;52.210;5.158;2024-02-04T08:35:46;102154.97;;;8.99;80.90
65329;BME280;51941;52.210;5.158;2024-02-04T08:38:13;102155.31;;;8.98;80.80
65329;BME280;51941;52.210;5.158;2024-02-04T08:40:41;102144.28;;;8.90;81.63
65329;BME280;51941;52.210;5.158;2024-02-04T08:43:08;102139.19;;;8.98;81.73
65329;BME280;51941;52.210;5.158;2024-02-04T08:45:35;102132.22;;;8.97;81.90
65329;BME280;51941;52.210;5.158;2024-02-04T08:48:02;102118.16;;;9.00;81.88
65329;BME280;51941;52.210;5.158;2024-02-04T08:50:29;102112.09;;;9.03;82.21
65329;BME280;51941;52.210;5.158;2024-02-04T08:52:56;102121.31;;;9.02;82.64
65329;BME280;51941;52.210;5.158;2024-02-04T08:55:23;102131.00;;;8.94;83.38
65329;BME280;51941;52.210;5.158;2024-02-04T08:57:51;102130.53;;;8.92;83.52
65329;BME280;51941;52.210;5.158;2024-02-04T09:00:19;102127.13;;;9.04;83.21
65329;BME280;51941;52.210;5.158;2024-02-04T09:02:47;102116.38;;;9.04;83.42
65329;BME280;51941;52.210;5.158;2024-02-04T09:05:13;102120.75;;;9.08;83.54
65329;BME280;51941;52.210;5.158;2024-02-04T09:07:41;102118.03;;;9.17;82.99
65329;BME280;51941;52.210;5.158;2024-02-04T09:10:09;102113.75;;;9.16;83.37
65329;BME280;51941;52.210;5.158;2024-02-04T09:12:35;102119.25;;;8.99;84.03
65329;BME280;51941;52.210;5.158;2024-02-04T09:15:05;102134.63;;;9.19;83.38
65329;BME280;51941;52.210;5.158;2024-02-04T09:17:32;102132.97;;;9.27;83.10
65329;BME280;51941;52.210;5.158;2024-02-04T09:19:59;102145.63;;;9.26;83.03
65329;BME280;51941;52.210;5.158;2024-02-04T09:22:26;102141.19;;;9.30;82.90
65329;BME280;51941;52.210;5.158;2024-02-04T09:24:52;102148.19;;;9.44;82.62
65329;BME280;51941;52.210;5.158;2024-02-04T09:27:19;102142.03;;;9.43;82.54
65329;BME280;51941;52.210;5.158;2024-02-04T09:29:46;102135.97;;;9.46;82.21
65329;BME280;51941;52.210;5.158;2024-02-04T09:32:14;102140.84;;;9.53;82.18
65329;BME280;51941;52.210;5.158;2024-02-04T09:34:40;102145.63;;;9.47;82.55
65329;BME280;51941;52.210;5.158;2024-02-04T09:37:07;102142.09;;;9.56;82.09
65329;BME280;51941;52.210;5.158;2024-02-04T09:39:34;102136.06;;;9.59;82.15
65329;BME280;51941;52.210;5.158;2024-02-04T09:42:01;102135.38;;;9.62;81.77
65329;BME280;51941;52.210;5.158;2024-02-04T09:44:27;102132.50;;;9.67;81.77
65329;BME280;51941;52.210;5.158;2024-02-04T09:46:54;102131.03;;;9.69;81.64
65329;BME280;51941;52.210;5.158;2024-02-04T09:49:25;102125.00;;;9.73;81.63
65329;BME280;51941;52.210;5.158;2024-02-04T09:51:53;102129.72;;;9.76;81.42
65329;BME280;51941;52.210;5.158;2024-02-04T09:54:21;102126.09;;;9.72;81.14
65329;BME280;51941;52.210;5.158;2024-02-04T09:56:49;102128.38;;;9.82;81.06
65329;BME280;51941;52.210;5.158;2024-02-04T09:59:16;102123.88;;;9.74;80.59
65329;BME280;51941;52.210;5.158;2024-02-04T10:01:44;102135.91;;;9.88;80.79
65329;BME280;51941;52.210;5.158;2024-02-04T10:04:11;102144.44;;;9.90;80.44
65329;BME280;51941;52.210;5.158;2024-02-04T10:06:39;102140.63;;;9.92;80.50
65329;BME280;51941;52.210;5.158;2024-02-04T10:09:06;102142.53;;;9.91;80.19
65329;BME280;51941;52.210;5.158;2024-02-04T10:11:33;102133.88;;;9.85;80.24
65329;BME280;51941;52.210;5.158;2024-02-04T10:14:00;102131.53;;;9.84;80.41
65329;BME280;51941;52.210;5.158;2024-02-04T10:16:27;102124.00;;;9.77;80.28
65329;BME280;51941;52.210;5.158;2024-02-04T10:18:54;102123.22;;;9.77;79.58
65329;BME280;51941;52.210;5.158;2024-02-04T10:21:22;102130.63;;;9.80;79.34
65329;BME280;51941;52.210;5.158;2024-02-04T10:23:50;102123.25;;;9.89;79.62
65329;BME280;51941;52.210;5.158;2024-02-04T10:26:17;102129.09;;;9.91;79.54
65329;BME280;51941;52.210;5.158;2024-02-04T10:28:45;102135.25;;;9.92;79.56
65329;BME280;51941;52.210;5.158;2024-02-04T10:31:13;102129.53;;;9.93;79.32
65329;BME280;51941;52.210;5.158;2024-02-04T10:33:39;102139.19;;;9.94;78.95
65329;BME280;51941;52.210;5.158;2024-02-04T10:36:06;102138.69;;;9.80;78.91
65329;BME280;51941;52.210;5.158;2024-02-04T10:38:33;102142.53;;;9.91;79.25
65329;BME280;51941;52.210;5.158;2024-02-04T10:41:02;102150.03;;;9.85;78.71
65329;BME280;51941;52.210;5.158;2024-02-04T10:43:31;102154.19;;;9.83;79.00
65329;BME280;51941;52.210;5.158;2024-02-04T10:46:01;102149.72;;;9.99;78.91
65329;BME280;51941;52.210;5.158;2024-02-04T10:48:29;102149.06;;;10.02;78.67
65329;BME280;51941;52.210;5.158;2024-02-04T10:51:01;102153.91;;;10.09;78.92
65329;BME280;51941;52.210;5.158;2024-02-04T10:53:28;102151.44;;;10.04;78.95
65329;BME280;51941;52.210;5.158;2024-02-04T10:55:59;102146.38;;;10.02;79.11
65329;BME280;51941;52.210;5.158;2024-02-04T10:58:30;102152.09;;;10.01;79.31
65329;BME280;51941;52.210;5.158;2024-02-04T11:00:57;102155.44;;;9.98;79.79
65329;BME280;51941;52.210;5.158;2024-02-04T11:03:25;102154.91;;;10.04;79.79
65329;BME280;51941;52.210;5.158;2024-02-04T11:05:53;102154.44;;;9.90;80.95
65329;BME280;51941;52.210;5.158;2024-02-04T11:08:21;102151.50;;;9.95;80.99
65329;BME280;51941;52.210;5.158;2024-02-04T11:10:48;102150.88;;;9.98;81.00
65329;BME280;51941;52.210;5.158;2024-02-04T11:13:15;102149.81;;;9.78;82.80
65329;BME280;51941;52.210;5.158;2024-02-04T11:15:44;102156.41;;;9.81;82.59
65329;BME280;51941;52.210;5.158;2024-02-04T11:18:28;102154.16;;;9.70;82.82
65329;BME280;51941;52.210;5.158;2024-02-04T11:21:10;102160.91;;;9.56;83.79
65329;BME280;51941;52.210;5.158;2024-02-04T11:23:49;102146.00;;;9.58;83.80
65329;BME280;51941;52.210;5.158;2024-02-04T11:26:21;102139.25;;;9.52;84.16
65329;BME280;51941;52.210;5.158;2024-02-04T11:28:49;102137.47;;;9.56;83.98
65329;BME280;51941;52.210;5.158;2024-02-04T11:31:18;102135.59;;;9.57;84.06
65329;BME280;51941;52.210;5.158;2024-02-04T11:33:45;102128.72;;;9.47;84.50
65329;BME280;51941;52.210;5.158;2024-02-04T11:36:13;102122.03;;;9.53;84.28
65329;BME280;51941;52.210;5.158;2024-02-04T11:38:40;102121.94;;;9.62;83.82
65329;BME280;51941;52.210;5.158;2024-02-04T11:41:07;102119.47;;;9.57;84.19
65329;BME280;51941;52.210;5.158;2024-02-04T11:43:36;102118.00;;;9.59;83.96
65329;BME280;51941;52.210;5.158;2024-02-04T11:46:03;102123.19;;;9.64;83.89
65329;BME280;51941;52.210;5.158;2024-02-04T11:48:33;102118.13;;;9.63;83.86
65329;BME280;51941;52.210;5.158;2024-02-04T11:51:00;102113.72;;;9.58;83.93
65329;BME280;51941;52.210;5.158;2024-02-04T11:53:27;102119.50;;;9.69;83.42
65329;BME280;51941;52.210;5.158;2024-02-04T11:55:57;102115.22;;;9.68;83.35
65329;BME280;51941;52.210;5.158;2024-02-04T11:58:25;102107.78;;;9.53;83.44
65329;BME280;51941;52.210;5.158;2024-02-04T12:00:53;102109.69;;;9.52;83.59
65329;BME280;51941;52.210;5.158;2024-02-04T12:03:28;102099.50;;;9.58;83.51
65329;BME280;51941;52.210;5.158;2024-02-04T12:05:57;102093.25;;;9.66;83.34
65329;BME280;51941;52.210;5.158;2024-02-04T12:08:24;102088.78;;;9.70;83.10
65329;BME280;51941;52.210;5.158;2024-02-04T12:10:52;102089.56;;;9.70;82.96
65329;BME280;51941;52.210;5.158;2024-02-04T12:13:19;102085.75;;;9.72;83.21
65329;BME280;51941;52.210;5.158;2024-02-04T12:15:47;102080.63;;;9.79;82.73
65329;BME280;51941;52.210;5.158;2024-02-04T12:18:14;102083.84;;;9.72;83.54
65329;BME280;51941;52.210;5.158;2024-02-04T12:20:45;102080.41;;;9.84;82.75
65329;BME280;51941;52.210;5.158;2024-02-04T12:23:14;102067.63;;;9.93;83.01
65329;BME280;51941;52.210;5.158;2024-02-04T12:25:41;102069.66;;;9.96;82.82
65329;BME280;51941;52.210;5.158;2024-02-04T12:28:08;102072.56;;;10.03;82.64
65329;BME280;51941;52.210;5.158;2024-02-04T12:30:35;102064.84;;;10.14;82.22
65329;BME280;51941;52.210;5.158;2024-02-04T12:33:03;102073.03;;;10.05;82.05
65329;BME280;51941;52.210;5.158;2024-02-04T12:35:30;102067.75;;;10.09;81.70
65329;BME280;51941;52.210;5.158;2024-02-04T12:37:58;102076.84;;;10.04;81.62
65329;BME280;51941;52.210;5.158;2024-02-04T12:40:28;102092.31;;;10.07;81.60
65329;BME280;51941;52.210;5.158;2024-02-04T12:42:55;102093.13;;;10.08;81.71
65329;BME280;51941;52.210;5.158;2024-02-04T12:45:22;102072.56;;;10.03;81.90
65329;BME280;51941;52.210;5.158;2024-02-04T12:47:50;102075.72;;;9.93;82.63
65329;BME280;51941;52.210;5.158;2024-02-04T12:50:17;102059.78;;;9.88;82.49
65329;BME280;51941;52.210;5.158;2024-02-04T12:52:45;102055.63;;;9.78;82.73
65329;BME280;51941;52.210;5.158;2024-02-04T12:55:23;102056.84;;;9.81;82.62
65329;BME280;51941;52.210;5.158;2024-02-04T12:58:01;102052.25;;;9.94;82.21
65329;BME280;51941;52.210;5.158;2024-02-04T13:00:29;102065.97;;;9.88;82.26
65329;BME280;51941;52.210;5.158;2024-02-04T13:02:56;102063.28;;;10.01;81.94